• Join FlightAware (Why Join?)
  • Login
  • US Flag 
08:40PM EDT


 

Airport Tracker/Info


-or-


 

Live Flight TrackerFlight Track Log ✈ AWE1231 ✈ 05-Jul-2013 ✈ KCLT - MKJS / MBJ

Flight Track Log - Related Links

Times and Time Zones

All times are in EDT time to prevent confusion due to time zone crossing. See the AWE1231 flight status page for this flight to view local times or setup timezone preferences in your user account.

Time Position Orientation Groundspeed Altitude Reporting Facility
EDT Latitude Longitude Course Direction KTS MPH feet Rate Location/Type
11:36AM 35.1650 -80.9310 176° South 195 224 2,400  Level FlightAware
11:36AM 35.1370 -80.9270 173° South 232 267 3,000 1,620 Climbing FlightAware
11:36AM 35.1100 -80.9210 170° South 249 287 3,900 2,400 Climbing FlightAware
11:37AM 35.0740 -80.9140 171° South 255 293 5,300 2,640 Climbing FlightAware
11:37AM 35.0460 -80.9090 172° South 261 300 6,300 2,760 Climbing FlightAware
11:38AM 35.0260 -80.9060 173° South 263 303 7,100 2,700 Climbing FlightAware
11:38AM 34.9920 -80.9020 174° South 264 304 8,300 2,340 Climbing FlightAware
11:39AM 34.9570 -80.9000 177° South 276 318 9,300 1,800 Climbing FlightAware
11:39AM 34.9390 -80.9000 180° South 290 334 9,600 1,680 Climbing FlightAware
11:39AM 34.8860 -80.8990 179° South 307 353 10,800 2,100 Climbing FlightAware
11:40AM 34.8200 -80.8980 179° South 313 360 12,600 2,220 Climbing FlightAware
11:41AM 34.7560 -80.8970 179° South 322 371 14,200 1,980 Climbing FlightAware
11:41AM 34.7110 -80.8960 179° South 333 383 15,000 1,740 Climbing FlightAware
11:42AM 34.6230 -80.8900 177° South 346 398 16,700 1,260 Climbing FlightAware
11:43AM 34.5760 -80.8850 175° South 347 399 16,900 1,800 Climbing FlightAware
11:44AM 34.4910 -80.8900 183° South 357 411 19,200 2,400 Climbing FlightAware
11:44AM 34.4250 -80.9070 192° South 355 409 20,500 960 Climbing FlightAware
11:45AM 34.3530 -80.9260 192° South 356 410 20,700 840 Climbing FlightAware
11:46AM 34.2670 -80.9480 192° South 373 429 22,000 1,500 Climbing FlightAware
11:47AM 34.1850 -80.9700 193° South 399 459 23,000 720 Climbing FlightAware
11:47AM 34.1180 -80.9870 192° South 421 484 23,000  Level FlightAware
11:48AM 34.0290 -81.0010 187° South 434 499 23,000 180 Level FlightAware
11:49AM 33.9310 -81.0320 195° South 449 517 23,300 960 Climbing FlightAware
11:50AM 33.8180 -81.0570 190° South 445 512 24,600 1,260 Climbing FlightAware
11:50AM 33.7480 -81.0630 184° South 446 513 25,200 1,260 Climbing FlightAware
11:51AM 33.6560 -81.0710 184° South 438 504 26,300 1,380 Climbing FlightAware
11:52AM 33.5640 -81.0790 184° South 437 503 27,300 1,140 Climbing FlightAware
11:53AM 33.4840 -81.0860 184° South 437 503 28,000 960 Climbing FlightAware
11:53AM 33.3920 -81.0940 184° South 439 505 28,700 720 Climbing FlightAware
11:54AM 33.3210 -81.1000 184° South 445 512 29,000 660 Climbing FlightAware
11:55AM 33.2290 -81.1080 184° South 447 514 29,600 720 Climbing FlightAware
11:55AM 33.1470 -81.1150 184° South 448 516 30,100 600 Climbing FlightAware
11:56AM 33.0520 -81.1230 184° South 456 525 30,500 600 Climbing FlightAware
11:57AM 32.9560 -81.1310 184° South 459 528 31,000 780 Climbing FlightAware
11:57AM 32.8830 -81.1370 184° South 457 526 31,600 960 Climbing FlightAware
11:58AM 32.7880 -81.1450 184° South 455 524 32,300 780 Climbing FlightAware
11:59AM 32.6970 -81.1530 184° South 458 527 32,800 780 Climbing FlightAware
11:59AM 32.6210 -81.1590 184° South 455 524 33,400 540 Climbing FlightAware
12:00PM 32.5250 -81.1680 185° South 456 525 33,600 300 Climbing FlightAware
12:01PM 32.4310 -81.1750 184° South 470 541 33,900 240 Climbing FlightAware
12:02PM 32.3650 -81.1810 184° South 470 541 33,900 60 Level FlightAware
12:02PM 32.2560 -81.1900 184° South 465 535 34,000  Climbing FlightAware
12:03PM 32.1260 -81.1980 183° South 471 542 34,000  Level FlightAware
12:04PM 32.0560 -81.1960 179° South 472 543 34,000  Level FlightAware
12:05PM 31.9580 -81.1930 179° South 473 544 34,000  Level FlightAware
12:05PM 31.8650 -81.1870 177° South 472 543 34,000  Level FlightAware
12:06PM 31.7690 -81.1620 168° South 471 542 34,000  Level FlightAware
12:07PM 31.6740 -81.1340 166° South 472 543 34,000  Level FlightAware
12:07PM 31.6130 -81.1170 167° South 473 544 34,000  Level FlightAware
12:08PM 31.4930 -81.0820 166° South 475 547 34,000  Level FlightAware
12:09PM 31.4060 -81.0570 166° South 475 547 34,000 360 Level FlightAware
12:10PM 31.2950 -81.0250 166° South 477 549 34,600 480 Climbing FlightAware
12:11PM 31.1880 -80.9940 166° South 475 547 34,900 180 Climbing FlightAware
12:11PM 31.1230 -80.9750 166° South 475 547 34,900  Level FlightAware
12:12PM 31.0360 -80.9500 166° South 475 547 34,900  Level FlightAware
12:13PM 30.9730 -80.9310 166° South 475 547 34,900  Level FlightAware
12:14PM 30.8840 -80.9060 166° South 475 547 34,900  Level FlightAware
12:14PM 30.8190 -80.8870 166° South 475 547 34,900  Level FlightAware
12:16PM 30.6210 -80.8290 166° South 475 547 34,900  Level FlightAware
12:17PM 30.5480 -80.8080 166° South 475 547 34,900 600 Level FlightAware
12:18PM 30.2790 -80.7350 167° South 483 556 36,000 660 Climbing FlightAware
12:18PM 30.2080 -80.7160 167° South 481 554 36,000  Level FlightAware
12:19PM 30.1180 -80.6900 166° South 480 552 36,000  Level FlightAware
12:20PM 30.0270 -80.6650 167° South 479 551 36,000  Level FlightAware
12:21PM 29.9130 -80.6320 166° South 477 549 36,000  Level FlightAware
12:21PM 29.8230 -80.6070 166° South 477 549 36,000  Level FlightAware
12:22PM 29.7580 -80.5880 166° South 477 549 36,000  Level FlightAware
12:23PM 29.6710 -80.5630 166° South 477 549 36,000  Level FlightAware
12:23PM 29.6000 -80.5420 166° South 477 549 36,000  Level FlightAware
12:24PM 29.4880 -80.5110 166° South 477 549 36,000  Level FlightAware
12:25PM 29.4230 -80.4920 166° South 477 549 36,000  Level FlightAware
12:26PM 29.3360 -80.4670 166° South 477 549 36,000  Level FlightAware
12:27PM 29.0280 -80.3880 167° South 461 531 36,000  Level FlightAware
12:28PM 28.9330 -80.3620 167° South 464 534 36,000  Level FlightAware
12:29PM 28.8590 -80.3410 166° South 464 534 36,000  Level FlightAware
12:29PM 28.7720 -80.3180 167° South 465 535 36,000  Level FlightAware
12:30PM 28.6920 -80.2960 166° South 465 535 36,000 -480 Level FlightAware
12:31PM 28.5860 -80.2670 166° South 466 536 35,300 -720 Descending FlightAware
12:32PM 28.4970 -80.2430 167° South 465 535 35,000 -540 Descending FlightAware
12:32PM 28.4130 -80.2200 166° South 443 510 34,600 -600 Descending FlightAware
12:33PM 28.3230 -80.1950 166° South 443 510 34,200 -480 Descending FlightAware
12:34PM 28.2410 -80.1730 167° South 448 516 34,000 -180 Descending FlightAware
12:34PM 28.1610 -80.1520 167° South 445 512 34,000  Level FlightAware
12:35PM 28.0850 -80.1310 166° South 442 509 34,000  Level FlightAware
12:36PM 28.0010 -80.1090 167° South 433 498 34,000  Level FlightAware
12:36PM 27.9220 -80.0870 166° South 431 496 34,000  Level FlightAware
12:37PM 27.8420 -80.0660 167° South 429 494 34,000  Level FlightAware
12:38PM 27.7640 -80.0450 167° South 428 493 34,000  Level FlightAware
12:38PM 27.6840 -80.0240 167° South 427 491 34,000  Level FlightAware
12:39PM 27.6130 -80.0050 167° South 426 490 34,000  Level FlightAware
12:40PM 27.5270 -79.9810 166° South 427 491 34,000  Level FlightAware
12:40PM 27.4400 -79.9590 167° South 430 495 34,000  Level FlightAware
12:41PM 27.3740 -79.9400 166° South 430 495 34,000  Level FlightAware
12:42PM 27.1970 -79.8940 167° South 438 504 34,000  Level FlightAware
12:43PM 27.1130 -79.8720 167° South 440 506 34,000  Level FlightAware
12:44PM 27.0290 -79.8500 167° South 443 510 34,000  Level FlightAware
12:44PM 26.9550 -79.8300 166° South 448 516 34,000  Level FlightAware
12:45PM 26.8760 -79.8090 167° South 450 518 34,000  Level FlightAware
12:46PM 26.7870 -79.7860 167° South 454 522 34,000  Level FlightAware
12:46PM 26.7160 -79.7670 167° South 450 518 34,000 60 Level FlightAware
12:47PM 26.5870 -79.7330 167° South 462 532 34,100 120 Climbing FlightAware
12:48PM 26.5000 -79.7110 167° South 450 518 34,300 540 Climbing FlightAware
12:49PM 26.4040 -79.6850 166° South 460 529 34,900 540 Climbing FlightAware
12:49PM 26.3340 -79.6670 167° South 462 532 35,000 60 Climbing FlightAware
12:50PM 26.2470 -79.6440 167° South 465 535 35,000  Level FlightAware
12:51PM 26.1540 -79.6200 167° South 465 535 35,000  Level FlightAware
12:52PM 26.0660 -79.5970 167° South 464 534 35,000  Level FlightAware
12:52PM 25.9860 -79.5770 167° South 463 533 35,000  Level FlightAware
12:53PM 25.8940 -79.5530 167° South 463 533 35,000  Level FlightAware
12:54PM 25.8030 -79.5290 167° South 464 534 35,000  Level FlightAware
12:54PM 25.7140 -79.5060 167° South 467 537 35,000  Level FlightAware
12:55PM 25.6290 -79.4840 167° South 470 541 35,000  Level FlightAware
12:56PM 25.5430 -79.4620 167° South 473 544 35,000 60 Level FlightAware
12:56PM 25.4440 -79.4370 167° South 475 547 35,100 60 Climbing FlightAware
12:57PM 25.3620 -79.4150 166° South 476 548 35,100 -120 Level FlightAware
12:58PM 25.2770 -79.3930 167° South 476 548 35,000 -120 Descending FlightAware
12:58PM 25.1940 -79.3720 167° South 476 548 35,000  Level FlightAware
12:59PM 25.1040 -79.3490 167° South 476 548 35,000  Level FlightAware
12:59PM 25.0760 -79.3420 167° South 476 548 35,000  Level FlightAware
01:01PM 24.8720 -79.2900 167° South 476 548 35,000  Level FlightAware
01:02PM 24.7500 -79.2590 167° South 477 549 35,000  Level FlightAware
01:03PM 24.6730 -79.2390 167° South 477 549 35,000  Level FlightAware
01:03PM 24.5470 -79.2070 167° South 478 550 35,000  Level FlightAware
01:04PM 24.4790 -79.1900 167° South 478 550 35,000  Level FlightAware
01:05PM 24.3920 -79.1680 167° South 478 550 35,000  Level FlightAware
01:06PM 24.3040 -79.1460 167° South 478 550 35,000  Level FlightAware
01:06PM 24.2380 -79.1290 167° South 478 550 35,000  Level FlightAware
01:07PM 24.1500 -79.1070 167° South 478 550 35,000  Level FlightAware
01:08PM 24.0640 -79.0850 167° South 478 550 35,000  Level FlightAware
01:08PM 23.9980 -79.0680 167° South 478 550 35,000  Level FlightAware
01:09PM 23.9080 -79.0460 167° South 478 550 35,000  Level FlightAware
01:10PM 23.8420 -79.0290 167° South 478 550 35,000  Level FlightAware
01:11PM 23.7360 -79.0020 167° South 478 550 35,000  Level FlightAware
01:12PM 23.6640 -78.9840 167° South 478 550 35,000  Level FlightAware
01:12PM 23.5750 -78.9610 167° South 478 550 35,000  Level FlightAware
01:13PM 23.5090 -78.9450 167° South 478 550 35,000  Level FlightAware
01:16PM 23.1998 -78.9599 173° South  Level FlightAware Approximate
01:17PM 23.0817 -78.9441 173° South  Level FlightAware Approximate
01:18PM 22.9636 -78.9282 173° South  Level FlightAware Approximate
01:19PM 22.8455 -78.9124 173° South  Level FlightAware Approximate
01:20PM 22.7274 -78.8966 173° South  Level FlightAware Approximate
01:21PM 22.6093 -78.8809 173° South  Level FlightAware Approximate
01:22PM 22.4912 -78.8651 173° South  Level FlightAware Approximate
01:23PM 22.3731 -78.8494 173° South  Level FlightAware Approximate
01:24PM 22.2550 -78.8338 173° South  Level FlightAware Approximate
01:25PM 22.1369 -78.8181 173° South  Level FlightAware Approximate
01:26PM 22.0188 -78.8025 173° South  Level FlightAware Approximate
01:27PM 21.9003 -78.8091 185° South  Level FlightAware Approximate
01:28PM 21.7817 -78.8199 185° South  Level FlightAware Approximate
01:29PM 21.6632 -78.8306 185° South  Level FlightAware Approximate
01:30PM 21.5444 -78.8374 182° South  Level FlightAware Approximate
01:31PM 21.4255 -78.8428 182° South  Level FlightAware Approximate
01:32PM 21.3066 -78.8482 182° South  Level FlightAware Approximate
01:33PM 21.1878 -78.8549 183° South  Level FlightAware Approximate
01:34PM 21.0690 -78.8624 183° South  Level FlightAware Approximate
01:35PM 20.9502 -78.8698 183° South  Level FlightAware Approximate
01:36PM 20.8314 -78.8772 183° South  Level FlightAware Approximate
01:37PM 20.7126 -78.8846 183° South  Level FlightAware Approximate
01:38PM 20.5938 -78.8921 183° South  Level FlightAware Approximate
01:39PM 20.4750 -78.8995 183° South  Level FlightAware Approximate
01:40PM 20.3563 -78.9085 184° South  Level FlightAware Approximate
01:41PM 20.2376 -78.9167 180° South  Level FlightAware Approximate
01:42PM 20.1189 -78.9225 185° South  Level FlightAware Approximate
01:43PM 20.0003 -78.9333 185° South  Level FlightAware Approximate
01:44PM 19.8977 -78.8694 150° Southeast  Level FlightAware Approximate
01:45PM 19.7983 -78.7998 145° Southeast  Level FlightAware Approximate
01:46PM 19.7004 -78.7280 145° Southeast  Level FlightAware Approximate
01:47PM 19.6021 -78.6569 148° Southeast  Level FlightAware Approximate
01:48PM 19.5013 -78.5897 148° Southeast  Level FlightAware Approximate
01:49PM 19.4006 -78.5226 148° Southeast  Level FlightAware Approximate
01:50PM 19.2999 -78.4554 148° Southeast  Level FlightAware Approximate
01:51PM 19.1991 -78.3883 148° Southeast  Level FlightAware Approximate
01:52PM 19.1009 -78.3173 145° Southeast  Level FlightAware Approximate
01:53PM 19.0023 -78.2469 149° Southeast  Level FlightAware Approximate
01:54PM 18.9004 -78.1820 149° Southeast  Level FlightAware Approximate
01:55PM 18.7991 -78.1160 148° Southeast  Level FlightAware Approximate
01:56PM 18.6985 -78.0489 145° Southeast  Level FlightAware Approximate
01:57PM 18.6015 -77.9761 145° Southeast  Level FlightAware Approximate
01:58PM 18.5045 -77.9034 145° Southeast  Level FlightAware Approximate